Time;durP1;ratioP1;P1;durP2;ratioP2;P2;SDS_P1;SDS_P2;PMS_P1;PMS_P2;Temp;Humidity;BMP_temperature;BMP_pressure;BME280_temperature;BME280_humidity;BME280_pressure;Samples;Min_cycle;Max_cycle;Signal;HPM_P1;HPM_P2
2021/10/20 00:01:14;;;;;;;3.33;2.30;;;;;;;;;;5069292;28;20418;-78
2021/10/20 00:03:41;;;;;;;3.03;2.53;;;;;;;;;;5069663;28;20938;-78
2021/10/20 00:06:07;;;;;;;2.80;2.50;;;;;;;;;;5069920;28;20406;-74
2021/10/20 00:08:33;;;;;;;4.40;2.23;;;;;;;;;;5069833;28;20422;-78
2021/10/20 00:10:59;;;;;;;3.03;1.87;;;;;;;;;;5069223;28;20456;-79
2021/10/20 00:13:25;;;;;;;3.20;2.53;;;;;;;;;;5069600;28;20891;-76
2021/10/20 00:15:52;;;;;;;3.70;2.60;;;;;;;;;;5069399;28;20419;-74
2021/10/20 00:18:18;;;;;;;7.53;3.63;;;;;;;;;;5069200;28;20501;-79
2021/10/20 00:20:44;;;;;;;3.30;2.20;;;;;;;;;;5068118;28;20423;-79
2021/10/20 00:23:12;;;;;;;2.40;1.93;;;;;;;;;;5068692;28;20455;-80
2021/10/20 00:25:38;;;;;;;3.53;2.20;;;;;;;;;;5067917;28;20422;-78
2021/10/20 00:28:04;;;;;;;3.30;2.43;;;;;;;;;;5069055;28;20415;-79
2021/10/20 00:30:30;;;;;;;2.57;2.37;;;;;;;;;;5059284;28;20427;-76
2021/10/20 00:32:59;;;;;;;2.30;2.00;;;;;;;;;;5055535;28;20427;-75
2021/10/20 00:35:25;;;;;;;3.63;2.03;;;;;;;;;;5055741;28;21284;-75
2021/10/20 00:37:51;;;;;;;4.97;2.67;;;;;;;;;;5055753;28;20947;-77
2021/10/20 00:40:17;;;;;;;2.93;2.40;;;;;;;;;;5055689;28;20824;-76
2021/10/20 00:42:44;;;;;;;3.00;2.10;;;;;;;;;;5055313;28;20863;-75
2021/10/20 00:45:10;;;;;;;4.03;2.63;;;;;;;;;;5055469;28;20408;-78
2021/10/20 00:47:37;;;;;;;2.60;2.40;;;;;;;;;;5055462;28;20507;-75
2021/10/20 00:50:07;;;;;;;5.10;2.93;;;;;;;;;;5055647;28;20404;-77
2021/10/20 00:52:33;;;;;;;2.80;1.80;;;;;;;;;;5055026;28;20428;-73
2021/10/20 00:55:00;;;;;;;2.83;2.27;;;;;;;;;;5055604;28;20474;-76
2021/10/20 00:57:27;;;;;;;3.90;2.67;;;;;;;;;;5055469;28;20444;-77
2021/10/20 00:59:53;;;;;;;2.60;2.40;;;;;;;;;;5055525;28;20435;-78
2021/10/20 01:02:20;;;;;;;7.20;2.53;;;;;;;;;;5055195;28;20485;-76
2021/10/20 01:04:49;;;;;;;2.40;2.00;;;;;;;;;;5054142;28;20490;-79
2021/10/20 01:07:16;;;;;;;2.20;2.00;;;;;;;;;;5055391;28;20771;-76
2021/10/20 01:09:42;;;;;;;2.43;2.23;;;;;;;;;;5055307;28;20423;-77
2021/10/20 01:12:11;;;;;;;4.23;2.13;;;;;;;;;;5054712;28;20515;-78
2021/10/20 01:14:37;;;;;;;2.17;1.97;;;;;;;;;;5055147;28;20508;-77
2021/10/20 01:17:03;;;;;;;3.00;2.23;;;;;;;;;;5055089;28;20456;-77
2021/10/20 01:19:29;;;;;;;3.40;3.10;;;;;;;;;;5055065;28;20841;-78
2021/10/20 01:21:56;;;;;;;3.60;2.10;;;;;;;;;;5054836;28;21014;-78
2021/10/20 01:24:22;;;;;;;2.80;2.30;;;;;;;;;;5055134;28;20407;-80
2021/10/20 01:26:52;;;;;;;3.30;2.53;;;;;;;;;;5055115;28;20446;-77
2021/10/20 01:29:19;;;;;;;2.67;2.20;;;;;;;;;;5054812;28;20416;-80
2021/10/20 01:31:52;;;;;;;3.13;2.40;;;;;;;;;;5053163;28;20514;-80
2021/10/20 01:34:18;;;;;;;2.67;2.40;;;;;;;;;;5055025;28;20411;-78
2021/10/20 01:36:44;;;;;;;2.37;2.17;;;;;;;;;;5054817;28;20408;-80
2021/10/20 01:39:11;;;;;;;2.77;2.57;;;;;;;;;;5054554;28;20810;-76
2021/10/20 01:41:38;;;;;;;3.60;2.60;;;;;;;;;;5053188;28;20448;-79
2021/10/20 01:44:04;;;;;;;3.10;2.80;;;;;;;;;;5054525;28;20491;-79
2021/10/20 01:46:30;;;;;;;4.67;2.40;;;;;;;;;;5054524;28;20818;-75
2021/10/20 01:48:57;;;;;;;3.53;2.87;;;;;;;;;;5054677;28;20487;-80
2021/10/20 01:51:23;;;;;;;3.57;2.73;;;;;;;;;;5053956;28;20511;-81
2021/10/20 01:53:49;;;;;;;3.30;2.40;;;;;;;;;;5054212;28;20415;-78
2021/10/20 01:56:15;;;;;;;3.00;2.80;;;;;;;;;;5054745;28;20407;-80
2021/10/20 01:58:42;;;;;;;5.13;3.00;;;;;;;;;;5053261;28;20471;-75
2021/10/20 02:01:08;;;;;;;4.13;3.10;;;;;;;;;;5054103;28;20772;-78
2021/10/20 02:03:37;;;;;;;2.97;2.67;;;;;;;;;;5054575;28;20495;-76
2021/10/20 02:06:04;;;;;;;3.17;2.87;;;;;;;;;;5054249;28;20421;-80
2021/10/20 02:08:30;;;;;;;4.60;2.77;;;;;;;;;;5054269;28;20912;-80
2021/10/20 02:10:56;;;;;;;2.83;2.63;;;;;;;;;;5055863;28;20473;-77
2021/10/20 02:13:22;;;;;;;4.10;3.10;;;;;;;;;;5058842;28;20428;-79
2021/10/20 02:15:48;;;;;;;4.87;2.50;;;;;;;;;;5053780;28;20978;-80
2021/10/20 02:18:14;;;;;;;3.27;2.57;;;;;;;;;;5053656;28;20476;-79
2021/10/20 02:20:40;;;;;;;3.67;2.97;;;;;;;;;;5053801;28;20408;-81
2021/10/20 02:23:06;;;;;;;3.43;3.10;;;;;;;;;;5052125;28;20795;-78
2021/10/20 02:25:32;;;;;;;3.77;3.00;;;;;;;;;;5053904;28;20400;-79
2021/10/20 02:27:58;;;;;;;3.20;2.90;;;;;;;;;;5035743;28;20437;-77
2021/10/20 02:30:25;;;;;;;3.77;2.93;;;;;;;;;;5053785;28;20412;-78
2021/10/20 02:32:51;;;;;;;6.30;3.20;;;;;;;;;;5052135;28;20797;-78
2021/10/20 02:35:17;;;;;;;3.30;2.50;;;;;;;;;;5053690;28;20920;-78
2021/10/20 02:37:45;;;;;;;4.00;3.13;;;;;;;;;;5053478;28;20466;-79
2021/10/20 02:40:12;;;;;;;3.90;3.07;;;;;;;;;;5052163;28;20450;-79
2021/10/20 02:42:38;;;;;;;3.47;3.00;;;;;;;;;;5053071;28;20427;-78
2021/10/20 02:45:04;;;;;;;4.03;3.03;;;;;;;;;;5053419;28;20416;-78
2021/10/20 02:47:30;;;;;;;4.30;3.30;;;;;;;;;;5052224;28;20499;-79
2021/10/20 02:49:56;;;;;;;11.83;3.50;;;;;;;;;;5052079;28;20427;-79
2021/10/20 02:52:22;;;;;;;7.33;3.07;;;;;;;;;;5052537;28;20443;-77
2021/10/20 02:54:48;;;;;;;3.80;3.03;;;;;;;;;;5053231;28;20442;-77
2021/10/20 02:57:14;;;;;;;4.00;3.00;;;;;;;;;;5053250;28;20415;-78
2021/10/20 02:59:40;;;;;;;3.07;2.77;;;;;;;;;;5053253;28;20460;-77
2021/10/20 03:02:07;;;;;;;5.33;3.37;;;;;;;;;;5051617;28;20497;-76
2021/10/20 03:04:33;;;;;;;3.77;3.13;;;;;;;;;;5052888;28;20408;-76
2021/10/20 03:06:59;;;;;;;4.53;3.17;;;;;;;;;;5053091;28;20422;-77
2021/10/20 03:09:25;;;;;;;3.73;2.87;;;;;;;;;;5053538;28;20462;-79
2021/10/20 03:11:51;;;;;;;3.40;2.73;;;;;;;;;;5052642;28;20443;-76
2021/10/20 03:14:17;;;;;;;3.70;3.30;;;;;;;;;;5051802;28;20974;-77
2021/10/20 03:16:43;;;;;;;3.70;3.40;;;;;;;;;;5053001;28;20483;-79
2021/10/20 03:19:09;;;;;;;3.50;2.90;;;;;;;;;;5052719;28;20529;-76
2021/10/20 03:21:35;;;;;;;3.90;3.47;;;;;;;;;;5052588;28;20428;-76
2021/10/20 03:24:01;;;;;;;3.80;2.83;;;;;;;;;;5052956;28;20515;-77
2021/10/20 03:26:27;;;;;;;2.93;2.63;;;;;;;;;;5051898;28;20499;-79
2021/10/20 03:28:53;;;;;;;4.00;3.40;;;;;;;;;;5053119;28;20462;-75
2021/10/20 03:31:19;;;;;;;4.30;3.03;;;;;;;;;;5052546;28;20490;-76
2021/10/20 03:33:45;;;;;;;2.97;2.67;;;;;;;;;;5053017;28;20469;-78
2021/10/20 03:36:12;;;;;;;5.23;2.60;;;;;;;;;;5052823;28;20408;-77
2021/10/20 03:38:38;;;;;;;4.57;3.50;;;;;;;;;;5052712;28;20467;-76
2021/10/20 03:41:04;;;;;;;3.90;3.00;;;;;;;;;;5052447;28;20438;-80
2021/10/20 03:43:30;;;;;;;4.20;3.40;;;;;;;;;;5052785;28;20404;-81
2021/10/20 03:45:56;;;;;;;3.30;3.00;;;;;;;;;;5052759;28;20447;-81
2021/10/20 03:48:22;;;;;;;3.83;3.43;;;;;;;;;;5052602;28;20419;-77
2021/10/20 03:50:48;;;;;;;5.53;3.97;;;;;;;;;;5052472;28;20408;-77
2021/10/20 03:53:14;;;;;;;3.50;3.20;;;;;;;;;;5052275;28;20494;-80
2021/10/20 03:55:40;;;;;;;3.93;3.13;;;;;;;;;;5052591;28;20419;-77
2021/10/20 03:58:07;;;;;;;4.77;3.20;;;;;;;;;;5052567;28;20479;-80
2021/10/20 04:00:33;;;;;;;2.90;2.70;;;;;;;;;;5052502;28;20458;-77
2021/10/20 04:02:59;;;;;;;3.90;3.20;;;;;;;;;;5050879;28;20432;-79
2021/10/20 04:05:25;;;;;;;3.60;3.30;;;;;;;;;;5054348;28;20418;-79
2021/10/20 04:07:51;;;;;;;5.40;3.47;;;;;;;;;;5056463;28;20462;-75
2021/10/20 04:10:19;;;;;;;6.40;3.23;;;;;;;;;;5056305;28;20470;-76
2021/10/20 04:12:45;;;;;;;5.20;3.70;;;;;;;;;;5055770;28;20476;-79
2021/10/20 04:15:12;;;;;;;3.20;2.90;;;;;;;;;;5054948;28;20787;-77
2021/10/20 04:17:38;;;;;;;6.70;3.53;;;;;;;;;;5056220;28;20404;-81
2021/10/20 04:20:08;;;;;;;5.37;3.47;;;;;;;;;;5054914;28;20424;-79
2021/10/20 04:22:34;;;;;;;3.37;3.07;;;;;;;;;;5055892;28;20432;-80
2021/10/20 04:25:00;;;;;;;5.10;3.53;;;;;;;;;;5055829;28;20434;-76
2021/10/20 04:27:27;;;;;;;4.97;3.23;;;;;;;;;;5055946;28;20940;-78
2021/10/20 04:29:55;;;;;;;4.67;3.80;;;;;;;;;;5055948;28;20499;-78
2021/10/20 04:32:21;;;;;;;4.70;3.67;;;;;;;;;;5055535;28;20506;-82
2021/10/20 04:34:47;;;;;;;4.10;3.43;;;;;;;;;;5054479;28;20928;-78
2021/10/20 04:37:13;;;;;;;4.30;3.57;;;;;;;;;;5055660;28;20440;-78
2021/10/20 04:39:39;;;;;;;5.40;3.63;;;;;;;;;;5055653;28;20825;-77
2021/10/20 04:42:05;;;;;;;3.50;3.20;;;;;;;;;;5055392;28;20436;-80
2021/10/20 04:44:31;;;;;;;3.67;3.27;;;;;;;;;;5055706;28;20400;-81
2021/10/20 04:46:57;;;;;;;3.70;3.40;;;;;;;;;;5054372;28;20755;-79
2021/10/20 04:49:23;;;;;;;5.43;3.37;;;;;;;;;;5054288;28;20466;-76
2021/10/20 04:51:49;;;;;;;6.60;3.43;;;;;;;;;;5055128;28;20923;-78
2021/10/20 04:54:15;;;;;;;3.57;3.23;;;;;;;;;;5055550;28;20412;-77
2021/10/20 04:56:41;;;;;;;5.20;3.73;;;;;;;;;;5055451;28;20454;-79
2021/10/20 04:59:07;;;;;;;4.93;3.53;;;;;;;;;;5055266;28;20479;-76
2021/10/20 05:01:33;;;;;;;5.40;3.53;;;;;;;;;;5054902;28;20459;-81
2021/10/20 05:03:59;;;;;;;4.43;3.60;;;;;;;;;;5055212;28;20408;-76
2021/10/20 05:06:25;;;;;;;4.87;3.63;;;;;;;;;;5055308;28;20408;-78
2021/10/20 05:08:51;;;;;;;3.93;3.30;;;;;;;;;;5055313;28;20415;-80
2021/10/20 05:11:17;;;;;;;4.50;4.07;;;;;;;;;;5054918;28;20489;-79
2021/10/20 05:13:43;;;;;;;4.53;3.17;;;;;;;;;;5054005;28;20775;-80
2021/10/20 05:16:09;;;;;;;4.60;3.77;;;;;;;;;;5055221;28;20423;-75
2021/10/20 05:18:35;;;;;;;5.40;3.80;;;;;;;;;;5055226;28;21029;-77
2021/10/20 05:21:01;;;;;;;4.87;4.37;;;;;;;;;;5054957;28;20450;-79
2021/10/20 05:23:27;;;;;;;4.83;3.47;;;;;;;;;;5054808;28;20420;-79
2021/10/20 05:25:53;;;;;;;10.83;3.80;;;;;;;;;;5054901;28;20427;-77
2021/10/20 05:28:18;;;;;;;5.50;3.60;;;;;;;;;;5054777;28;20404;-80
2021/10/20 05:30:44;;;;;;;4.30;3.87;;;;;;;;;;5055062;28;20443;-77
2021/10/20 05:33:10;;;;;;;5.10;3.97;;;;;;;;;;5054333;28;20460;-78
2021/10/20 05:35:36;;;;;;;4.73;3.53;;;;;;;;;;5054790;28;20412;-78
2021/10/20 05:38:02;;;;;;;4.17;3.43;;;;;;;;;;5053292;28;20464;-79
2021/10/20 05:40:28;;;;;;;5.73;4.13;;;;;;;;;;5054667;28;20440;-80
2021/10/20 05:42:54;;;;;;;8.03;3.57;;;;;;;;;;5054126;28;20490;-77
2021/10/20 05:45:21;;;;;;;4.60;3.67;;;;;;;;;;5054415;28;20737;-79
2021/10/20 05:47:47;;;;;;;4.13;3.60;;;;;;;;;;5054353;28;20584;-78
2021/10/20 05:50:14;;;;;;;6.47;3.70;;;;;;;;;;5054451;28;20404;-80
2021/10/20 05:52:40;;;;;;;4.00;3.53;;;;;;;;;;5054000;28;20451;-78
2021/10/20 05:55:07;;;;;;;4.43;4.07;;;;;;;;;;5054390;28;20432;-75
2021/10/20 05:57:35;;;;;;;4.60;4.20;;;;;;;;;;5054206;28;20408;-76
2021/10/20 06:00:01;;;;;;;4.57;3.80;;;;;;;;;;5054495;28;20411;-79
2021/10/20 06:02:27;;;;;;;5.03;3.90;;;;;;;;;;5053869;28;20478;-79
2021/10/20 06:04:53;;;;;;;5.13;3.77;;;;;;;;;;5054087;28;20412;-79
2021/10/20 06:07:19;;;;;;;4.03;3.73;;;;;;;;;;5054084;28;20443;-78
2021/10/20 06:09:45;;;;;;;3.70;3.40;;;;;;;;;;5052745;28;20896;-80
2021/10/20 06:12:11;;;;;;;4.53;3.60;;;;;;;;;;5053500;28;20432;-80
2021/10/20 06:14:37;;;;;;;5.43;4.23;;;;;;;;;;5052710;28;20419;-80
2021/10/20 06:17:03;;;;;;;5.67;3.77;;;;;;;;;;5053867;28;20412;-79
2021/10/20 06:19:29;;;;;;;4.63;3.90;;;;;;;;;;5053704;28;20464;-78
2021/10/20 06:21:57;;;;;;;4.50;3.87;;;;;;;;;;5053331;28;20504;-77
2021/10/20 06:24:23;;;;;;;4.93;4.20;;;;;;;;;;5054079;28;20401;-79
2021/10/20 06:26:49;;;;;;;3.83;3.50;;;;;;;;;;5053934;28;20569;-80
2021/10/20 06:29:16;;;;;;;8.83;4.57;;;;;;;;;;5052260;28;20415;-78
2021/10/20 06:31:42;;;;;;;5.20;3.83;;;;;;;;;;5053134;28;20443;-77
2021/10/20 06:34:08;;;;;;;4.30;3.70;;;;;;;;;;5053810;28;20420;-76
2021/10/20 06:36:36;;;;;;;5.77;4.63;;;;;;;;;;5053704;28;20458;-78
2021/10/20 06:39:03;;;;;;;3.87;3.53;;;;;;;;;;5053419;28;20491;-77
2021/10/20 06:41:29;;;;;;;4.93;3.97;;;;;;;;;;5053123;28;20446;-77
2021/10/20 06:43:55;;;;;;;4.33;3.93;;;;;;;;;;5053358;28;20503;-76
2021/10/20 06:46:21;;;;;;;4.50;4.10;;;;;;;;;;5053474;28;20419;-76
2021/10/20 06:48:47;;;;;;;7.57;4.30;;;;;;;;;;5053448;28;20498;-82
2021/10/20 06:51:13;;;;;;;6.93;3.50;;;;;;;;;;5052918;28;20775;-79
2021/10/20 06:53:39;;;;;;;7.23;3.73;;;;;;;;;;5053168;28;20416;-80
2021/10/20 06:56:09;;;;;;;5.80;4.80;;;;;;;;;;5053151;28;20466;-77
2021/10/20 06:58:36;;;;;;;7.67;4.40;;;;;;;;;;5052310;28;20498;-77
2021/10/20 07:01:02;;;;;;;4.33;3.93;;;;;;;;;;5052880;28;20487;-80
2021/10/20 07:03:28;;;;;;;4.90;4.40;;;;;;;;;;5053117;28;20408;-80
2021/10/20 07:05:54;;;;;;;6.40;4.07;;;;;;;;;;5053219;28;20487;-80
2021/10/20 07:08:20;;;;;;;5.47;4.37;;;;;;;;;;5052808;28;20454;-77
2021/10/20 07:10:46;;;;;;;9.23;4.13;;;;;;;;;;5053079;28;20465;-79
2021/10/20 07:13:12;;;;;;;5.30;4.47;;;;;;;;;;5051753;28;20530;-81
2021/10/20 07:15:38;;;;;;;7.60;4.07;;;;;;;;;;5053293;28;20416;-80
2021/10/20 07:18:04;;;;;;;6.00;4.00;;;;;;;;;;5053026;28;20479;-81
2021/10/20 07:20:30;;;;;;;4.40;4.00;;;;;;;;;;5052950;28;20396;-77
2021/10/20 07:22:56;;;;;;;5.40;4.30;;;;;;;;;;5052637;28;21019;-80
2021/10/20 07:25:22;;;;;;;4.30;3.90;;;;;;;;;;5052998;28;20461;-78
2021/10/20 07:27:49;;;;;;;8.13;4.70;;;;;;;;;;5053121;28;20426;-77
2021/10/20 07:30:15;;;;;;;8.30;4.40;;;;;;;;;;5051778;28;20420;-79
2021/10/20 07:32:42;;;;;;;4.60;4.20;;;;;;;;;;5052732;28;20783;-81
2021/10/20 07:35:08;;;;;;;7.83;3.90;;;;;;;;;;5051733;28;20506;-76
2021/10/20 07:37:35;;;;;;;6.70;4.53;;;;;;;;;;5053109;28;20491;-78
2021/10/20 07:40:01;;;;;;;5.60;4.07;;;;;;;;;;5054265;28;20450;-79
2021/10/20 07:42:27;;;;;;;5.83;4.30;;;;;;;;;;5055212;28;20428;-77
2021/10/20 07:44:53;;;;;;;5.73;4.10;;;;;;;;;;5056988;28;20499;-80
2021/10/20 07:47:20;;;;;;;5.13;4.63;;;;;;;;;;5056768;28;20980;-76
2021/10/20 07:49:47;;;;;;;6.83;4.17;;;;;;;;;;5056672;28;20981;-78
2021/10/20 07:52:13;;;;;;;4.50;3.83;;;;;;;;;;5056195;28;20428;-79
2021/10/20 07:54:39;;;;;;;4.30;3.90;;;;;;;;;;5056291;28;20451;-78
2021/10/20 07:57:06;;;;;;;4.97;4.20;;;;;;;;;;5056691;28;20443;-77
2021/10/20 07:59:32;;;;;;;5.13;4.63;;;;;;;;;;5056350;28;20459;-79
2021/10/20 08:01:58;;;;;;;5.23;4.73;;;;;;;;;;5056166;28;20939;-80
2021/10/20 08:04:24;;;;;;;3.73;3.43;;;;;;;;;;5056347;28;20412;-78
2021/10/20 08:06:50;;;;;;;6.03;4.73;;;;;;;;;;5056440;28;20408;-79
2021/10/20 08:09:16;;;;;;;4.20;3.80;;;;;;;;;;5056302;28;20721;-80
2021/10/20 08:11:42;;;;;;;4.40;3.27;;;;;;;;;;5055869;28;20432;-79
2021/10/20 08:14:08;;;;;;;3.93;3.63;;;;;;;;;;5056253;28;20412;-76
2021/10/20 08:16:33;;;;;;;3.80;3.50;;;;;;;;;;5056053;28;20857;-80
2021/10/20 08:18:59;;;;;;;3.57;3.10;;;;;;;;;;5056371;28;20566;-81
2021/10/20 08:21:26;;;;;;;5.77;3.43;;;;;;;;;;5054486;28;20431;-79
2021/10/20 08:23:52;;;;;;;4.27;3.60;;;;;;;;;;5056191;28;20404;-81
2021/10/20 08:26:18;;;;;;;4.37;3.97;;;;;;;;;;5056058;28;20394;-81
2021/10/20 08:28:45;;;;;;;4.00;3.63;;;;;;;;;;5056146;28;20900;-80
2021/10/20 08:31:11;;;;;;;5.90;3.80;;;;;;;;;;5055912;28;20427;-79
2021/10/20 08:33:37;;;;;;;6.30;3.50;;;;;;;;;;5056079;28;20423;-77
2021/10/20 08:36:03;;;;;;;7.17;3.80;;;;;;;;;;5056090;28;20465;-78
2021/10/20 08:38:29;;;;;;;8.13;3.70;;;;;;;;;;5055976;28;20548;-78
2021/10/20 08:40:56;;;;;;;5.80;3.83;;;;;;;;;;5055435;28;20892;-80
2021/10/20 08:43:22;;;;;;;4.23;3.70;;;;;;;;;;5055773;28;20770;-80
2021/10/20 08:45:48;;;;;;;4.53;3.90;;;;;;;;;;5054323;28;20912;-79
2021/10/20 08:48:18;;;;;;;5.43;3.27;;;;;;;;;;5055765;28;20408;-81
2021/10/20 08:50:46;;;;;;;5.00;3.43;;;;;;;;;;5055040;28;20387;-79
2021/10/20 08:53:12;;;;;;;7.50;4.60;;;;;;;;;;5055160;28;20489;-75
2021/10/20 08:55:38;;;;;;;4.87;3.63;;;;;;;;;;5055449;28;20423;-79
2021/10/20 08:58:04;;;;;;;4.60;3.67;;;;;;;;;;5055370;28;20434;-79
2021/10/20 09:00:30;;;;;;;3.70;3.40;;;;;;;;;;5055399;28;20802;-77
2021/10/20 09:02:56;;;;;;;3.70;3.40;;;;;;;;;;5054760;28;20432;-78
2021/10/20 09:05:24;;;;;;;3.40;3.10;;;;;;;;;;5054045;28;20420;-80
2021/10/20 09:07:53;;;;;;;3.80;3.43;;;;;;;;;;5055355;28;20399;-81
2021/10/20 09:10:19;;;;;;;4.40;4.00;;;;;;;;;;5055312;28;20743;-78
2021/10/20 09:12:46;;;;;;;3.33;3.00;;;;;;;;;;5053556;28;20424;-78
2021/10/20 09:15:18;;;;;;;4.60;4.20;;;;;;;;;;5055466;28;20383;-79
2021/10/20 09:17:45;;;;;;;4.30;3.90;;;;;;;;;;5054953;28;20428;-81
2021/10/20 09:20:20;;;;;;;4.10;3.70;;;;;;;;;;5055264;28;20389;-76
2021/10/20 09:23:03;;;;;;;5.77;3.40;;;;;;;;;;5054690;28;20427;-79
2021/10/20 09:25:33;;;;;;;6.57;3.90;;;;;;;;;;5054969;28;20411;-77
2021/10/20 09:27:59;;;;;;;6.67;4.60;;;;;;;;;;5054898;28;20418;-76
2021/10/20 09:30:27;;;;;;;4.83;3.40;;;;;;;;;;5055066;28;20400;-76
2021/10/20 09:32:56;;;;;;;4.43;3.70;;;;;;;;;;5054440;28;20439;-76
2021/10/20 09:35:22;;;;;;;6.03;4.03;;;;;;;;;;5054698;28;20385;-77
2021/10/20 09:37:48;;;;;;;5.20;4.00;;;;;;;;;;5054627;28;20975;-77
2021/10/20 09:40:15;;;;;;;5.10;3.70;;;;;;;;;;5053418;28;20522;-77
2021/10/20 09:42:45;;;;;;;3.70;3.40;;;;;;;;;;5054237;28;20432;-77
2021/10/20 09:45:13;;;;;;;5.33;3.50;;;;;;;;;;5054686;28;20387;-76
2021/10/20 09:47:39;;;;;;;4.70;4.17;;;;;;;;;;5053254;28;20431;-77
2021/10/20 09:50:06;;;;;;;5.63;4.30;;;;;;;;;;5053372;28;20394;-77
2021/10/20 09:52:43;;;;;;;5.07;4.00;;;;;;;;;;5054006;28;20410;-75
2021/10/20 09:55:12;;;;;;;4.60;3.73;;;;;;;;;;5054265;28;20410;-80
2021/10/20 09:57:38;;;;;;;6.70;3.80;;;;;;;;;;5054209;28;20737;-79
2021/10/20 10:00:04;;;;;;;6.33;3.67;;;;;;;;;;5054261;28;20522;-80
2021/10/20 10:02:31;;;;;;;4.60;4.20;;;;;;;;;;5053175;28;20864;-79
2021/10/20 10:04:57;;;;;;;7.13;3.90;;;;;;;;;;5054251;28;20394;-77
2021/10/20 10:07:23;;;;;;;5.50;4.13;;;;;;;;;;5054144;28;20894;-78
2021/10/20 10:09:49;;;;;;;5.77;3.80;;;;;;;;;;5054138;28;20444;-80
2021/10/20 10:12:18;;;;;;;6.07;4.00;;;;;;;;;;5053739;28;20432;-77
2021/10/20 10:14:50;;;;;;;5.10;4.10;;;;;;;;;;5053074;28;20412;-80
2021/10/20 10:17:19;;;;;;;4.27;3.87;;;;;;;;;;5054212;28;20404;-80
2021/10/20 10:19:45;;;;;;;7.10;4.17;;;;;;;;;;5053996;28;20463;-78
2021/10/20 10:22:29;;;;;;;5.17;4.30;;;;;;;;;;5053641;28;20943;-79
2021/10/20 10:24:59;;;;;;;4.63;3.90;;;;;;;;;;5053876;28;20412;-76
2021/10/20 10:27:25;;;;;;;5.10;3.90;;;;;;;;;;5053841;28;20375;-78
2021/10/20 10:29:54;;;;;;;5.87;5.00;;;;;;;;;;5035812;28;20432;-80
2021/10/20 10:32:20;;;;;;;7.17;4.53;;;;;;;;;;5052258;28;20511;-77
2021/10/20 10:34:47;;;;;;;5.17;3.93;;;;;;;;;;5053940;28;20924;-78
2021/10/20 10:37:24;;;;;;;6.00;4.80;;;;;;;;;;5053847;28;20442;-79
2021/10/20 10:39:51;;;;;;;4.37;3.73;;;;;;;;;;5053488;28;20467;-77
2021/10/20 10:42:17;;;;;;;4.30;3.70;;;;;;;;;;5051989;28;20529;-77
2021/10/20 10:44:50;;;;;;;7.27;4.10;;;;;;;;;;5053683;28;20418;-76
2021/10/20 10:47:27;;;;;;;4.73;3.93;;;;;;;;;;5053329;28;20494;-79
2021/10/20 10:49:55;;;;;;;4.03;3.63;;;;;;;;;;5053574;28;20418;-79
2021/10/20 10:52:33;;;;;;;7.57;4.40;;;;;;;;;;5053092;28;20463;-76
2021/10/20 10:55:14;;;;;;;4.40;4.00;;;;;;;;;;5053438;28;20497;-76
2021/10/20 10:57:58;;;;;;;4.90;4.40;;;;;;;;;;5053207;28;20419;-77
2021/10/20 11:00:29;;;;;;;5.33;3.87;;;;;;;;;;5053280;28;20842;-79
2021/10/20 11:02:55;;;;;;;7.70;4.77;;;;;;;;;;5051787;28;20561;-77
2021/10/20 11:05:22;;;;;;;6.90;4.43;;;;;;;;;;5053161;28;20491;-79
2021/10/20 11:07:49;;;;;;;4.63;4.23;;;;;;;;;;5053017;28;20404;-80
2021/10/20 11:10:16;;;;;;;4.43;4.03;;;;;;;;;;5053038;28;20398;-78
2021/10/20 11:12:49;;;;;;;5.80;5.10;;;;;;;;;;5052840;28;20435;-76
2021/10/20 11:15:16;;;;;;;5.20;4.30;;;;;;;;;;5052875;28;20736;-75
2021/10/20 11:17:42;;;;;;;6.43;4.20;;;;;;;;;;5052743;28;20414;-76
2021/10/20 11:20:10;;;;;;;5.53;5.00;;;;;;;;;;5052847;28;20430;-75
2021/10/20 11:22:36;;;;;;;5.60;4.83;;;;;;;;;;5051335;28;20902;-78
2021/10/20 11:25:06;;;;;;;5.07;4.33;;;;;;;;;;5053243;28;20500;-78
2021/10/20 11:27:32;;;;;;;6.30;4.47;;;;;;;;;;5051968;28;20416;-76
2021/10/20 11:29:58;;;;;;;5.00;4.10;;;;;;;;;;5052938;28;20771;-77
2021/10/20 11:32:24;;;;;;;4.90;4.10;;;;;;;;;;5052487;28;20510;-79
2021/10/20 11:34:51;;;;;;;6.17;4.70;;;;;;;;;;5053076;28;20408;-77
2021/10/20 11:37:19;;;;;;;6.40;4.40;;;;;;;;;;5052928;28;20412;-78
2021/10/20 11:39:52;;;;;;;5.80;4.20;;;;;;;;;;5052929;28;20462;-78
2021/10/20 11:42:18;;;;;;;4.83;4.43;;;;;;;;;;5052437;28;20435;-78
2021/10/20 11:44:45;;;;;;;6.33;4.90;;;;;;;;;;5052844;28;20451;-77
2021/10/20 11:47:14;;;;;;;6.43;4.83;;;;;;;;;;5052903;28;20383;-75
2021/10/20 11:49:44;;;;;;;6.07;4.77;;;;;;;;;;5052805;28;20416;-79
2021/10/20 11:52:11;;;;;;;5.53;5.00;;;;;;;;;;5051019;28;20777;-77
2021/10/20 11:54:37;;;;;;;8.70;4.93;;;;;;;;;;5052773;28;20427;-77
2021/10/20 11:57:07;;;;;;;6.70;4.63;;;;;;;;;;5052764;28;20881;-78
2021/10/20 11:59:33;;;;;;;4.33;3.93;;;;;;;;;;5052655;28;20438;-77
2021/10/20 12:02:00;;;;;;;11.60;5.07;;;;;;;;;;5052199;28;20410;-79
2021/10/20 12:04:27;;;;;;;5.20;4.67;;;;;;;;;;5052434;28;20746;-76
2021/10/20 12:06:54;;;;;;;5.70;4.67;;;;;;;;;;5052751;28;20415;-77
2021/10/20 12:09:20;;;;;;;5.47;4.60;;;;;;;;;;5052545;28;20457;-78
2021/10/20 12:11:48;;;;;;;5.23;4.50;;;;;;;;;;5052173;28;20438;-76
2021/10/20 12:14:15;;;;;;;8.03;4.50;;;;;;;;;;5052405;28;20450;-77
2021/10/20 12:16:42;;;;;;;5.97;4.20;;;;;;;;;;5052638;28;20394;-76
2021/10/20 12:19:10;;;;;;;5.00;4.60;;;;;;;;;;5052334;28;20536;-77
2021/10/20 12:21:37;;;;;;;5.70;4.60;;;;;;;;;;5052062;28;20469;-76
2021/10/20 12:24:04;;;;;;;5.43;4.93;;;;;;;;;;5052686;28;20784;-78
2021/10/20 12:26:31;;;;;;;5.30;4.60;;;;;;;;;;5054419;28;20404;-78
2021/10/20 12:29:00;;;;;;;6.00;4.30;;;;;;;;;;5054973;28;20417;-78
2021/10/20 12:31:27;;;;;;;4.97;4.30;;;;;;;;;;5055709;28;20811;-78
2021/10/20 12:33:54;;;;;;;5.30;4.40;;;;;;;;;;5054784;28;20424;-77
2021/10/20 12:36:21;;;;;;;4.83;3.93;;;;;;;;;;5056143;28;20444;-79
2021/10/20 12:38:47;;;;;;;5.23;4.00;;;;;;;;;;5055896;28;20538;-77
2021/10/20 12:41:16;;;;;;;5.30;4.43;;;;;;;;;;5055318;28;20815;-78
2021/10/20 12:43:50;;;;;;;7.00;4.50;;;;;;;;;;5055955;28;20435;-79
2021/10/20 12:46:17;;;;;;;4.20;3.83;;;;;;;;;;5056053;28;20427;-78
2021/10/20 12:48:43;;;;;;;4.33;3.80;;;;;;;;;;5055728;28;20404;-79
2021/10/20 12:51:19;;;;;;;4.63;4.20;;;;;;;;;;5055319;28;20404;-77
2021/10/20 12:53:47;;;;;;;7.10;4.40;;;;;;;;;;5037807;28;20416;-79
2021/10/20 12:56:13;;;;;;;3.40;3.10;;;;;;;;;;5055545;28;20383;-77
2021/10/20 12:58:40;;;;;;;5.50;3.60;;;;;;;;;;5053979;28;20562;-79
2021/10/20 13:01:06;;;;;;;3.53;3.23;;;;;;;;;;5054975;28;20495;-77
2021/10/20 13:03:35;;;;;;;4.80;3.70;;;;;;;;;;5055316;28;20519;-78
2021/10/20 13:06:03;;;;;;;5.07;4.10;;;;;;;;;;5055300;28;20400;-76
2021/10/20 13:08:29;;;;;;;4.50;3.50;;;;;;;;;;5055690;28;20419;-77
2021/10/20 13:10:55;;;;;;;4.33;3.93;;;;;;;;;;5055348;28;20416;-78
2021/10/20 13:13:22;;;;;;;4.20;3.80;;;;;;;;;;5055259;28;20518;-78
2021/10/20 13:15:48;;;;;;;5.10;3.83;;;;;;;;;;5055136;28;20457;-78
2021/10/20 13:18:15;;;;;;;6.47;4.00;;;;;;;;;;5054999;28;20459;-79
2021/10/20 13:20:41;;;;;;;5.17;3.23;;;;;;;;;;5054961;28;20408;-76
2021/10/20 13:23:08;;;;;;;8.93;3.87;;;;;;;;;;5054627;28;20427;-77
2021/10/20 13:25:38;;;;;;;4.20;3.50;;;;;;;;;;5055038;28;20408;-78
2021/10/20 13:28:07;;;;;;;3.60;3.00;;;;;;;;;;5053684;28;20442;-77
2021/10/20 13:30:34;;;;;;;4.10;2.90;;;;;;;;;;5055146;28;20420;-76
2021/10/20 13:33:03;;;;;;;5.93;4.43;;;;;;;;;;5053183;28;20464;-76
2021/10/20 13:35:29;;;;;;;3.87;3.47;;;;;;;;;;5054305;28;20427;-77
2021/10/20 13:37:56;;;;;;;5.27;3.63;;;;;;;;;;5054616;28;20798;-78
2021/10/20 13:40:22;;;;;;;6.07;3.47;;;;;;;;;;5054561;28;20408;-77
2021/10/20 13:42:49;;;;;;;5.20;4.10;;;;;;;;;;5052929;28;20450;-77
2021/10/20 13:45:17;;;;;;;5.23;3.53;;;;;;;;;;5054568;28;20417;-78
2021/10/20 13:47:43;;;;;;;4.23;3.60;;;;;;;;;;5053423;28;20450;-77
2021/10/20 13:50:09;;;;;;;4.57;2.93;;;;;;;;;;5054470;28;20419;-77
2021/10/20 13:52:35;;;;;;;3.20;2.90;;;;;;;;;;5053964;28;20436;-78
2021/10/20 13:55:02;;;;;;;5.83;4.10;;;;;;;;;;5054182;28;20383;-78
2021/10/20 13:57:28;;;;;;;4.17;3.77;;;;;;;;;;5053997;28;20409;-79
2021/10/20 13:59:55;;;;;;;6.03;3.67;;;;;;;;;;5053110;28;20442;-77
2021/10/20 14:02:22;;;;;;;10.90;3.77;;;;;;;;;;5053879;28;20774;-77
2021/10/20 14:04:51;;;;;;;5.60;4.07;;;;;;;;;;5052857;28;20491;-77
2021/10/20 14:07:18;;;;;;;4.70;3.77;;;;;;;;;;5053960;28;20408;-77
2021/10/20 14:09:44;;;;;;;4.63;3.40;;;;;;;;;;5054219;28;20490;-76
2021/10/20 14:12:10;;;;;;;3.90;3.50;;;;;;;;;;5053768;28;20414;-79
2021/10/20 14:14:36;;;;;;;3.83;3.53;;;;;;;;;;5054108;28;20415;-78
2021/10/20 14:17:02;;;;;;;4.57;3.03;;;;;;;;;;5054004;28;20439;-76
2021/10/20 14:19:28;;;;;;;3.43;3.13;;;;;;;;;;5052475;28;21017;-79
2021/10/20 14:21:54;;;;;;;3.93;3.47;;;;;;;;;;5053291;28;20470;-77
2021/10/20 14:24:20;;;;;;;3.93;3.20;;;;;;;;;;5053934;28;20410;-78
2021/10/20 14:26:49;;;;;;;4.10;3.80;;;;;;;;;;5053897;28;20885;-77
2021/10/20 14:29:17;;;;;;;3.70;3.37;;;;;;;;;;5053578;28;20900;-77
2021/10/20 14:31:43;;;;;;;4.90;3.70;;;;;;;;;;5053228;28;20474;-77
2021/10/20 14:34:10;;;;;;;4.67;3.80;;;;;;;;;;5053689;28;20415;-77
2021/10/20 14:36:37;;;;;;;6.03;3.10;;;;;;;;;;5053537;28;20435;-78
2021/10/20 14:39:04;;;;;;;5.73;3.73;;;;;;;;;;5052252;28;20463;-79
2021/10/20 14:41:30;;;;;;;3.80;3.50;;;;;;;;;;5052987;28;20432;-78